createdAt,value
2023-04-17T00:00:39.022Z,26.73
2023-04-17T00:03:05.797Z,25.83
2023-04-17T00:05:33.646Z,27.63
2023-04-17T00:08:00.561Z,27.80
2023-04-17T00:10:27.115Z,26.23
2023-04-17T00:12:53.493Z,27.33
2023-04-17T00:15:20.435Z,28.60
2023-04-17T00:17:47.058Z,29.33
2023-04-17T00:20:13.692Z,27.27
2023-04-17T00:22:40.256Z,29.40
2023-04-17T00:25:07.442Z,26.83
2023-04-17T00:27:34.146Z,25.67
2023-04-17T00:30:01.620Z,26.70
2023-04-17T00:32:28.499Z,27.00
2023-04-17T00:34:55.937Z,26.53
2023-04-17T00:37:22.443Z,25.20
2023-04-17T00:39:48.866Z,27.63
2023-04-17T00:42:15.328Z,26.47
2023-04-17T00:44:41.898Z,23.43
2023-04-17T00:47:08.510Z,24.67
2023-04-17T00:49:35.150Z,23.83
2023-04-17T00:52:02.681Z,24.17
2023-04-17T00:54:29.450Z,23.03
2023-04-17T00:56:56.790Z,22.63
2023-04-17T00:59:23.995Z,20.47
2023-04-17T01:01:50.531Z,23.87
2023-04-17T01:04:17.718Z,20.17
2023-04-17T01:06:44.795Z,20.33
2023-04-17T01:09:12.151Z,20.33
2023-04-17T01:11:39.536Z,20.97
2023-04-17T01:14:06.273Z,18.63
2023-04-17T01:16:33.821Z,20.27
2023-04-17T01:19:00.834Z,20.33
2023-04-17T01:21:28.186Z,21.17
2023-04-17T01:23:55.243Z,20.47
2023-04-17T01:26:23.547Z,18.70
2023-04-17T01:28:54.596Z,19.43
2023-04-17T01:31:21.874Z,16.93
2023-04-17T01:33:49.175Z,16.20
2023-04-17T01:36:16.605Z,15.07
2023-04-17T01:38:44.333Z,14.30
2023-04-17T01:41:11.918Z,16.07
2023-04-17T01:43:40.732Z,14.37
2023-04-17T01:46:07.766Z,14.47
2023-04-17T01:48:34.640Z,14.87
2023-04-17T01:51:01.623Z,14.33
2023-04-17T01:53:31.963Z,14.87
2023-04-17T01:55:58.817Z,13.50
2023-04-17T01:58:25.792Z,14.87
2023-04-17T02:00:52.275Z,11.77
2023-04-17T02:03:19.251Z,12.97
2023-04-17T02:05:47.314Z,14.07
2023-04-17T02:08:14.309Z,13.93
2023-04-17T02:10:41.893Z,11.57
2023-04-17T02:13:09.607Z,12.00
2023-04-17T02:15:39.406Z,13.27
2023-04-17T02:18:06.747Z,12.90
2023-04-17T02:20:34.241Z,14.00
2023-04-17T02:23:01.859Z,13.47
2023-04-17T02:25:28.807Z,14.57
2023-04-17T02:27:56.685Z,16.03
2023-04-17T02:30:24.528Z,16.17
2023-04-17T02:32:52.871Z,16.30
2023-04-17T02:35:26.099Z,16.30
2023-04-17T02:37:53.024Z,16.33
2023-04-17T02:40:19.612Z,16.33
2023-04-17T02:42:46.120Z,15.30
2023-04-17T02:45:12.745Z,16.90
2023-04-17T02:47:39.325Z,14.63
2023-04-17T02:50:06.614Z,13.23
2023-04-17T02:52:33.413Z,15.00
2023-04-17T02:55:00.381Z,14.43
2023-04-17T02:57:27.074Z,13.87
2023-04-17T02:59:53.579Z,13.70
2023-04-17T03:02:23.978Z,14.50
2023-04-17T03:04:51.726Z,13.63
2023-04-17T03:07:19.431Z,12.87
2023-04-17T03:09:47.445Z,12.37
2023-04-17T03:12:15.042Z,14.87
2023-04-17T03:14:41.920Z,15.07
2023-04-17T03:17:09.499Z,15.80
2023-04-17T03:19:36.008Z,15.33
2023-04-17T03:22:03.204Z,14.87
2023-04-17T03:24:30.313Z,14.47
2023-04-17T03:26:57.597Z,15.10
2023-04-17T03:29:24.131Z,15.87
2023-04-17T03:31:50.706Z,15.27
2023-04-17T03:34:18.164Z,16.80
2023-04-17T03:36:44.702Z,15.03
2023-04-17T03:39:11.508Z,15.17
2023-04-17T03:41:38.698Z,14.63
2023-04-17T03:44:05.705Z,15.97
2023-04-17T03:46:32.109Z,16.40
2023-04-17T03:48:58.494Z,14.60
2023-04-17T03:51:24.919Z,18.23
2023-04-17T03:53:51.727Z,12.73
2023-04-17T03:56:18.149Z,13.47
2023-04-17T03:58:45.268Z,13.20
2023-04-17T04:01:12.655Z,12.80
2023-04-17T04:03:39.398Z,14.00
2023-04-17T04:06:07.293Z,12.20
2023-04-17T04:08:33.801Z,13.37
2023-04-17T04:11:03.392Z,12.43
2023-04-17T04:13:29.870Z,13.43
2023-04-17T04:15:56.321Z,11.97
2023-04-17T04:18:22.824Z,11.90
2023-04-17T04:20:50.015Z,9.60
2023-04-17T04:23:16.879Z,11.20
2023-04-17T04:25:43.672Z,10.13
2023-04-17T04:28:10.684Z,8.00
2023-04-17T04:30:38.670Z,8.77
2023-04-17T04:33:06.055Z,9.47
2023-04-17T04:35:32.675Z,7.27
2023-04-17T04:38:02.422Z,6.23
2023-04-17T04:40:30.696Z,7.67
2023-04-17T04:42:58.547Z,5.93
2023-04-17T04:45:25.451Z,7.10
2023-04-17T04:47:51.829Z,5.57
2023-04-17T04:50:18.471Z,5.10
2023-04-17T04:52:44.970Z,4.50
2023-04-17T04:55:12.584Z,3.70
2023-04-17T04:57:39.049Z,5.17
2023-04-17T05:00:08.770Z,6.00
2023-04-17T05:02:35.803Z,6.87
2023-04-17T05:05:02.456Z,8.13
2023-04-17T05:07:28.898Z,4.50
2023-04-17T05:09:55.555Z,5.97
2023-04-17T05:12:22.114Z,6.37
2023-04-17T05:14:48.671Z,6.43
2023-04-17T05:17:15.773Z,7.27
2023-04-17T05:19:42.218Z,7.50
2023-04-17T05:22:08.740Z,7.27
2023-04-17T05:24:35.326Z,6.53
2023-04-17T05:27:02.260Z,6.20
2023-04-17T05:29:28.692Z,6.80
2023-04-17T05:31:55.207Z,7.90
2023-04-17T05:34:21.602Z,9.77
2023-04-17T05:36:48.342Z,11.60
2023-04-17T05:39:14.876Z,10.10
2023-04-17T05:41:41.412Z,10.47
2023-04-17T05:44:08.296Z,11.50
2023-04-17T05:46:34.773Z,10.70
2023-04-17T05:49:01.594Z,10.83
2023-04-17T05:51:28.754Z,10.20
2023-04-17T05:53:55.387Z,9.83
2023-04-17T05:56:21.928Z,14.47
2023-04-17T05:58:48.584Z,11.67
2023-04-17T06:01:17.714Z,15.27
2023-04-17T06:03:44.312Z,12.17
2023-04-17T06:06:11.045Z,12.63
2023-04-17T06:08:37.466Z,13.47
2023-04-17T06:11:03.875Z,10.53
2023-04-17T06:13:30.628Z,12.13
2023-04-17T06:15:57.045Z,12.73
2023-04-17T06:18:23.615Z,13.23
2023-04-17T06:20:50.564Z,12.90
2023-04-17T06:23:17.009Z,13.87
2023-04-17T06:25:43.445Z,16.37
2023-04-17T06:28:10.444Z,12.37
2023-04-17T06:30:37.761Z,14.80
2023-04-17T06:33:04.438Z,11.40
2023-04-17T06:35:31.162Z,12.33
2023-04-17T06:37:58.187Z,15.90
2023-04-17T06:40:24.734Z,12.30
2023-04-17T06:42:51.858Z,11.27
2023-04-17T06:45:19.140Z,13.17
2023-04-17T06:47:46.654Z,11.63
2023-04-17T06:50:13.211Z,9.83
2023-04-17T06:52:39.711Z,8.47
2023-04-17T06:55:06.584Z,10.80
2023-04-17T06:57:34.091Z,9.23
2023-04-17T07:00:00.766Z,10.03
2023-04-17T07:02:27.607Z,8.57
2023-04-17T07:04:55.175Z,9.17
2023-04-17T07:07:21.847Z,8.90
2023-04-17T07:09:48.582Z,10.00
2023-04-17T07:12:15.427Z,8.27
2023-04-17T07:14:42.273Z,10.47
2023-04-17T07:17:09.255Z,12.43
2023-04-17T07:19:38.047Z,10.07
2023-04-17T07:22:05.679Z,11.03
2023-04-17T07:24:34.990Z,12.13
2023-04-17T07:27:04.617Z,10.07
2023-04-17T07:29:31.341Z,11.87
2023-04-17T07:31:58.047Z,11.87
2023-04-17T07:34:25.247Z,10.67
2023-04-17T07:36:54.481Z,11.57
2023-04-17T07:39:21.486Z,9.60
2023-04-17T07:41:49.119Z,8.43
2023-04-17T07:44:16.141Z,6.37
2023-04-17T07:46:42.620Z,8.70
2023-04-17T07:49:11.388Z,9.33
2023-04-17T07:51:41.259Z,9.27
2023-04-17T07:54:08.033Z,8.67
2023-04-17T07:56:34.666Z,7.70
2023-04-17T07:59:01.302Z,8.00
2023-04-17T08:01:27.953Z,8.30
2023-04-17T08:03:55.564Z,7.73
2023-04-17T08:06:22.685Z,8.10
2023-04-17T08:08:49.058Z,7.63
2023-04-17T08:11:15.561Z,7.03
2023-04-17T08:13:42.896Z,6.47
2023-04-17T08:16:10.022Z,6.13
2023-04-17T08:18:37.777Z,5.53
2023-04-17T08:21:04.739Z,5.33
2023-04-17T08:23:31.342Z,6.50
2023-04-17T08:25:58.300Z,5.63
2023-04-17T08:28:25.120Z,7.10
2023-04-17T08:30:51.858Z,7.03
2023-04-17T08:33:18.612Z,5.10
2023-04-17T08:35:45.445Z,5.60
2023-04-17T08:38:14.176Z,7.03
2023-04-17T08:40:46.625Z,7.90
2023-04-17T08:43:18.736Z,10.33
2023-04-17T08:45:53.653Z,8.93
2023-04-17T08:48:21.837Z,9.97
2023-04-17T08:50:49.859Z,9.37
2023-04-17T08:53:17.414Z,8.70
2023-04-17T08:55:45.335Z,9.43
2023-04-17T08:58:12.666Z,10.33
2023-04-17T09:00:41.259Z,10.10
2023-04-17T09:03:11.238Z,10.03
2023-04-17T09:05:41.660Z,8.40
2023-04-17T09:08:24.028Z,10.60
2023-04-17T09:10:52.246Z,9.20
2023-04-17T09:13:21.098Z,9.80
2023-04-17T09:16:04.259Z,7.90
2023-04-17T09:18:31.643Z,8.00
2023-04-17T09:21:01.924Z,7.80
2023-04-17T09:23:30.681Z,12.63
2023-04-17T09:26:07.680Z,10.13
2023-04-17T09:28:39.485Z,9.03
2023-04-17T09:31:27.346Z,10.57
2023-04-17T09:33:58.192Z,9.00
2023-04-17T09:36:24.906Z,8.30
2023-04-17T09:38:51.762Z,11.80
2023-04-17T09:41:31.988Z,13.27
2023-04-17T09:44:05.419Z,8.53
2023-04-17T09:46:41.359Z,9.75
2023-04-17T09:49:42.096Z,9.98
2023-04-17T09:52:09.197Z,11.93
2023-04-17T09:54:39.138Z,10.23
2023-04-17T09:57:10.079Z,10.10
2023-04-17T09:59:48.919Z,9.73
2023-04-17T10:02:17.794Z,10.60
2023-04-17T10:04:45.496Z,9.00
2023-04-17T10:07:13.224Z,7.80
2023-04-17T10:09:45.712Z,7.40
2023-04-17T10:12:16.997Z,7.60
2023-04-17T10:14:46.972Z,7.13
2023-04-17T10:17:32.416Z,7.43
2023-04-17T10:20:19.986Z,9.02
2023-04-17T10:22:54.072Z,7.20
2023-04-17T10:25:25.252Z,7.40
2023-04-17T10:27:53.485Z,9.90
2023-04-17T10:30:22.623Z,9.20
2023-04-17T10:33:12.991Z,9.80
2023-04-17T10:35:39.898Z,11.88
2023-04-17T10:38:08.372Z,8.93
2023-04-17T10:40:36.189Z,14.75
2023-04-17T10:43:14.724Z,10.63
2023-04-17T10:46:01.913Z,9.55
2023-04-17T10:48:38.097Z,8.90
2023-04-17T10:51:23.589Z,9.88
2023-04-17T10:53:51.676Z,10.40
2023-04-17T10:56:29.043Z,10.73
2023-04-17T10:59:09.553Z,9.85
2023-04-17T11:01:48.449Z,9.30
2023-04-17T11:04:26.679Z,10.33
2023-04-17T11:06:54.176Z,11.90
2023-04-17T11:09:21.988Z,9.93
2023-04-17T11:11:48.566Z,12.23
2023-04-17T11:14:20.378Z,10.47
2023-04-17T11:16:51.151Z,11.20
2023-04-17T11:19:23.090Z,9.35
2023-04-17T11:21:52.549Z,14.35
2023-04-17T11:24:30.086Z,13.07
2023-04-17T11:26:59.891Z,13.07
2023-04-17T11:29:27.076Z,12.10
2023-04-17T11:31:56.250Z,10.40
2023-04-17T11:34:23.202Z,8.47
2023-04-17T11:36:57.178Z,10.00
2023-04-17T11:39:25.665Z,10.82
2023-04-17T11:41:52.700Z,11.60
2023-04-17T11:44:20.580Z,10.23
2023-04-17T11:46:51.764Z,10.88
2023-04-17T11:49:28.888Z,10.53
2023-04-17T11:51:59.053Z,11.53
2023-04-17T11:54:28.819Z,9.90
2023-04-17T11:57:03.018Z,14.03
2023-04-17T11:59:33.898Z,10.77
2023-04-17T12:02:02.118Z,13.40
2023-04-17T12:04:30.213Z,10.57
2023-04-17T12:06:58.545Z,10.43
2023-04-17T12:09:31.266Z,13.18
2023-04-17T12:11:58.685Z,12.23
2023-04-17T12:14:26.664Z,10.27
2023-04-17T12:16:53.206Z,10.63
2023-04-17T12:19:19.925Z,11.20
2023-04-17T12:21:49.210Z,11.75
2023-04-17T12:24:19.249Z,12.00
2023-04-17T12:26:47.075Z,10.85
2023-04-17T12:29:14.776Z,10.33
2023-04-17T12:31:41.781Z,10.67
2023-04-17T12:34:08.327Z,11.80
2023-04-17T12:36:35.014Z,10.10
2023-04-17T12:39:01.635Z,10.43
2023-04-17T12:41:28.122Z,10.57
2023-04-17T12:43:54.659Z,9.70
2023-04-17T12:46:21.466Z,8.35
2023-04-17T12:48:48.062Z,8.83
2023-04-17T12:51:14.451Z,9.48
2023-04-17T12:53:40.947Z,9.97
2023-04-17T12:56:07.774Z,10.70
2023-04-17T12:58:34.278Z,11.43
2023-04-17T13:01:00.773Z,12.17
2023-04-17T13:03:27.871Z,11.50
2023-04-17T13:05:54.448Z,14.77
2023-04-17T13:08:20.959Z,11.70
2023-04-17T13:10:47.369Z,13.03
2023-04-17T13:13:13.787Z,16.77
2023-04-17T13:15:40.401Z,23.45
2023-04-17T13:18:08.061Z,14.80
2023-04-17T13:20:34.572Z,14.40
2023-04-17T13:23:01.081Z,13.67
2023-04-17T13:25:29.474Z,17.80
2023-04-17T13:27:55.935Z,16.85
2023-04-17T13:30:22.930Z,16.77
2023-04-17T13:32:49.697Z,14.18
2023-04-17T13:35:16.182Z,13.10
2023-04-17T13:37:42.730Z,15.57
2023-04-17T13:40:12.529Z,14.07
2023-04-17T13:42:39.128Z,14.88
2023-04-17T13:45:06.883Z,15.53
2023-04-17T13:47:33.384Z,17.63
2023-04-17T13:50:00.073Z,14.13
2023-04-17T13:52:26.886Z,14.27
2023-04-17T13:54:53.338Z,14.57
2023-04-17T13:57:19.795Z,15.27
2023-04-17T13:59:46.447Z,16.00
2023-04-17T14:02:12.883Z,15.67
2023-04-17T14:04:39.493Z,17.20
2023-04-17T14:07:06.236Z,18.63
2023-04-17T14:09:32.773Z,16.97
2023-04-17T14:11:59.250Z,16.83
2023-04-17T14:14:29.228Z,18.60
2023-04-17T14:16:56.530Z,16.13
2023-04-17T14:19:23.734Z,15.83
2023-04-17T14:21:50.720Z,14.87
2023-04-17T14:24:17.394Z,17.50
2023-04-17T14:26:43.839Z,19.17
2023-04-17T14:29:10.866Z,18.50
2023-04-17T14:31:37.996Z,16.60
2023-04-17T14:34:04.449Z,17.47
2023-04-17T14:36:31.201Z,19.07
2023-04-17T14:38:58.656Z,17.87
2023-04-17T14:41:29.740Z,18.23
2023-04-17T14:43:56.537Z,16.03
2023-04-17T14:46:23.014Z,17.53
2023-04-17T14:48:55.553Z,17.90
2023-04-17T14:51:26.716Z,19.33
2023-04-17T14:53:53.491Z,17.03
2023-04-17T14:56:21.508Z,16.27
2023-04-17T14:58:48.515Z,16.37
2023-04-17T15:01:15.237Z,15.67
2023-04-17T15:03:43.759Z,13.80
2023-04-17T15:06:12.081Z,16.03
2023-04-17T15:08:38.954Z,14.40
2023-04-17T15:11:06.250Z,15.77
2023-04-17T15:13:33.029Z,14.85
2023-04-17T15:15:59.549Z,15.83
2023-04-17T15:18:27.140Z,17.50
2023-04-17T15:20:53.579Z,14.43
2023-04-17T15:23:21.156Z,16.70
2023-04-17T15:25:47.530Z,16.60
2023-04-17T15:28:14.099Z,14.15
2023-04-17T15:30:41.170Z,15.00
2023-04-17T15:33:09.817Z,17.77
2023-04-17T15:35:36.871Z,16.20
2023-04-17T15:38:03.375Z,15.50
2023-04-17T15:40:29.808Z,14.87
2023-04-17T15:42:56.281Z,14.47
2023-04-17T15:45:22.909Z,15.73
2023-04-17T15:47:49.565Z,14.17
2023-04-17T15:50:16.131Z,11.47
2023-04-17T15:52:42.853Z,11.50
2023-04-17T15:55:09.811Z,13.07
2023-04-17T15:57:36.634Z,10.30
2023-04-17T16:00:03.865Z,14.50
2023-04-17T16:02:30.804Z,21.03
2023-04-17T16:04:57.414Z,18.97
2023-04-17T16:07:24.058Z,17.43
2023-04-17T16:09:50.898Z,9.73
2023-04-17T16:12:17.757Z,10.87
2023-04-17T16:14:44.179Z,10.03
2023-04-17T16:17:10.682Z,7.90
2023-04-17T16:19:37.112Z,10.27
2023-04-17T16:22:03.544Z,11.17
2023-04-17T16:24:30.072Z,12.20
2023-04-17T16:26:58.273Z,8.83
2023-04-17T16:29:25.218Z,8.77
2023-04-17T16:31:52.781Z,9.60
2023-04-17T16:34:20.741Z,9.70
2023-04-17T16:36:47.956Z,9.23
2023-04-17T16:39:14.471Z,7.10
2023-04-17T16:41:41.225Z,8.23
2023-04-17T16:44:07.688Z,8.83
2023-04-17T16:46:52.057Z,7.53
2023-04-17T16:49:21.198Z,9.23
2023-04-17T16:51:47.918Z,8.87
2023-04-17T16:54:14.633Z,8.93
2023-04-17T16:56:41.991Z,9.13
2023-04-17T16:59:08.575Z,10.07
2023-04-17T17:01:35.264Z,7.73
2023-04-17T17:04:02.022Z,7.13
2023-04-17T17:06:29.129Z,8.33
2023-04-17T17:08:55.657Z,7.43
2023-04-17T17:11:22.812Z,7.93
2023-04-17T17:13:51.205Z,7.43
2023-04-17T17:16:19.556Z,7.30
2023-04-17T17:18:47.449Z,8.43
2023-04-17T17:21:14.578Z,9.07
2023-04-17T17:23:41.322Z,8.57
2023-04-17T17:26:08.380Z,8.23
2023-04-17T17:28:37.742Z,8.30
2023-04-17T17:31:08.406Z,8.57
2023-04-17T17:33:35.843Z,8.40
2023-04-17T17:36:03.057Z,8.30
2023-04-17T17:38:30.782Z,8.50
2023-04-17T17:40:57.270Z,8.67
2023-04-17T17:43:23.940Z,9.37
2023-04-17T17:45:50.751Z,9.20
2023-04-17T17:48:18.186Z,10.83
2023-04-17T17:50:44.854Z,8.13
2023-04-17T17:53:11.821Z,8.73
2023-04-17T17:55:38.840Z,8.87
2023-04-17T17:58:06.991Z,7.93
2023-04-17T18:00:34.129Z,8.97
2023-04-17T18:03:01.155Z,8.33
2023-04-17T18:05:28.141Z,9.97
2023-04-17T18:07:54.722Z,8.87
2023-04-17T18:10:21.181Z,9.13
2023-04-17T18:12:49.152Z,8.33
2023-04-17T18:15:15.707Z,7.57
2023-04-17T18:17:42.252Z,8.33
2023-04-17T18:20:09.465Z,8.93
2023-04-17T18:22:37.925Z,9.53
2023-04-17T18:25:06.972Z,8.37
2023-04-17T18:27:36.226Z,8.70
2023-04-17T18:30:05.229Z,14.10
2023-04-17T18:32:32.078Z,7.97
2023-04-17T18:34:59.352Z,9.13
2023-04-17T18:37:25.895Z,8.17
2023-04-17T18:39:52.631Z,8.80
2023-04-17T18:42:19.199Z,10.97
2023-04-17T18:44:45.796Z,8.63
2023-04-17T18:47:12.429Z,9.93
2023-04-17T18:49:38.819Z,10.30
2023-04-17T18:52:05.605Z,10.47
2023-04-17T18:54:32.510Z,10.53
2023-04-17T18:56:59.052Z,11.23
2023-04-17T18:59:28.007Z,9.63
2023-04-17T19:01:54.491Z,9.83
2023-04-17T19:04:21.769Z,10.53
2023-04-17T19:06:49.353Z,10.13
2023-04-17T19:09:15.813Z,11.33
2023-04-17T19:11:42.728Z,11.07
2023-04-17T19:14:09.306Z,11.40
2023-04-17T19:16:35.901Z,11.97
2023-04-17T19:19:02.335Z,11.77
2023-04-17T19:21:31.187Z,12.47
2023-04-17T19:23:57.680Z,13.43
2023-04-17T19:26:24.269Z,14.10
2023-04-17T19:28:50.743Z,14.50
2023-04-17T19:31:17.987Z,15.40
2023-04-17T19:33:44.809Z,14.07
2023-04-17T19:36:11.384Z,15.53
2023-04-17T19:38:37.830Z,14.87
2023-04-17T19:41:12.316Z,16.50
2023-04-17T19:43:38.799Z,15.90
2023-04-17T19:46:05.703Z,14.10
2023-04-17T19:48:32.155Z,15.00
2023-04-17T19:51:00.059Z,15.07
2023-04-17T19:53:31.107Z,15.73
2023-04-17T19:55:57.804Z,17.03
2023-04-17T19:58:24.270Z,15.90
2023-04-17T20:00:50.843Z,16.03
2023-04-17T20:03:17.491Z,16.27
2023-04-17T20:05:44.689Z,15.30
2023-04-17T20:08:11.156Z,17.13
2023-04-17T20:10:37.713Z,15.33
2023-04-17T20:13:04.269Z,16.07
2023-04-17T20:15:30.729Z,15.43
2023-04-17T20:17:57.285Z,16.47
2023-04-17T20:20:23.839Z,18.20
2023-04-17T20:22:50.334Z,16.73
2023-04-17T20:25:16.951Z,16.73
2023-04-17T20:27:43.746Z,18.53
2023-04-17T20:30:10.778Z,18.03
2023-04-17T20:32:37.388Z,20.37
2023-04-17T20:35:04.429Z,18.43
2023-04-17T20:37:30.893Z,21.67
2023-04-17T20:39:57.293Z,19.70
2023-04-17T20:42:23.741Z,21.23
2023-04-17T20:44:50.226Z,22.23
2023-04-17T20:47:16.793Z,19.03
2023-04-17T20:49:43.223Z,20.40
2023-04-17T20:52:09.896Z,21.23
2023-04-17T20:54:36.492Z,19.57
2023-04-17T20:57:03.086Z,21.60
2023-04-17T20:59:29.711Z,20.30
2023-04-17T21:01:56.309Z,21.70
2023-04-17T21:04:22.830Z,20.20
2023-04-17T21:06:49.331Z,19.97
2023-04-17T21:09:16.474Z,20.87
2023-04-17T21:11:42.991Z,20.30
2023-04-17T21:14:09.455Z,19.83
2023-04-17T21:16:36.009Z,19.47
2023-04-17T21:19:02.560Z,18.17
2023-04-17T21:21:29.172Z,19.60
2023-04-17T21:23:55.876Z,21.33
2023-04-17T21:26:22.370Z,20.63
2023-04-17T21:28:48.864Z,17.83
2023-04-17T21:31:15.558Z,20.17
2023-04-17T21:33:42.015Z,22.77
2023-04-17T21:36:09.130Z,20.87
2023-04-17T21:38:35.676Z,18.57
2023-04-17T21:41:02.110Z,19.87
2023-04-17T21:43:28.480Z,19.77
2023-04-17T21:45:57.044Z,20.27
2023-04-17T21:48:23.937Z,18.87
2023-04-17T21:50:51.178Z,19.10
2023-04-17T21:53:17.744Z,17.13
2023-04-17T21:55:44.251Z,19.47
2023-04-17T21:58:10.901Z,17.67
2023-04-17T22:00:37.574Z,15.57
2023-04-17T22:03:04.274Z,17.63
2023-04-17T22:05:30.720Z,18.77
2023-04-17T22:07:57.269Z,14.77
2023-04-17T22:10:24.205Z,16.57
2023-04-17T22:12:50.886Z,18.50
2023-04-17T22:15:17.571Z,15.57
2023-04-17T22:17:44.660Z,18.97
2023-04-17T22:20:11.712Z,17.10
2023-04-17T22:22:38.285Z,19.00
2023-04-17T22:25:05.343Z,18.07
2023-04-17T22:27:31.717Z,19.67
2023-04-17T22:29:58.155Z,20.27
2023-04-17T22:32:24.800Z,19.23
2023-04-17T22:34:51.306Z,21.77
2023-04-17T22:37:18.662Z,20.67
2023-04-17T22:39:45.418Z,22.03
2023-04-17T22:42:11.977Z,23.73
2023-04-17T22:44:38.484Z,22.73
2023-04-17T22:47:04.987Z,23.73
2023-04-17T22:49:37.952Z,25.83
2023-04-17T22:52:06.114Z,23.63
2023-04-17T22:54:35.609Z,25.90
2023-04-17T22:57:05.043Z,25.50
2023-04-17T22:59:31.585Z,25.33
2023-04-17T23:01:58.399Z,27.00
2023-04-17T23:04:25.477Z,29.87
2023-04-17T23:06:52.073Z,28.60
2023-04-17T23:09:18.511Z,26.57
2023-04-17T23:11:44.905Z,27.83
2023-04-17T23:14:12.213Z,31.67
2023-04-17T23:16:38.870Z,31.00
2023-04-17T23:19:05.593Z,33.80
2023-04-17T23:21:32.238Z,33.97
2023-04-17T23:23:59.333Z,41.03
2023-04-17T23:26:25.899Z,33.80
2023-04-17T23:28:52.943Z,35.37
2023-04-17T23:31:19.807Z,36.60
2023-04-17T23:33:46.531Z,43.00
2023-04-17T23:36:13.744Z,36.60
2023-04-17T23:38:40.366Z,37.40
2023-04-17T23:41:06.816Z,42.47
2023-04-17T23:43:33.336Z,44.13
2023-04-17T23:46:00.869Z,43.67
2023-04-17T23:48:28.198Z,39.93
2023-04-17T23:50:55.280Z,42.77
2023-04-17T23:53:22.326Z,45.43
2023-04-17T23:55:48.802Z,43.93
2023-04-17T23:58:15.298Z,50.00
